createdAt,value
2023-04-27T00:00:18.782Z,23.89
2023-04-27T00:01:18.799Z,23.97
2023-04-27T00:02:18.936Z,23.95
2023-04-27T00:03:19.045Z,24.07
2023-04-27T00:04:19.028Z,24.03
2023-04-27T00:05:19.018Z,24.03
2023-04-27T00:06:18.980Z,23.99
2023-04-27T00:07:19.001Z,24.50
2023-04-27T00:08:18.996Z,23.99
2023-04-27T00:09:19.118Z,24.14
2023-04-27T00:10:19.054Z,24.09
2023-04-27T00:11:19.074Z,24.07
2023-04-27T00:12:19.083Z,24.10
2023-04-27T00:13:19.117Z,24.30
2023-04-27T00:14:19.088Z,24.05
2023-04-27T00:15:19.099Z,24.00
2023-04-27T00:16:19.186Z,23.92
2023-04-27T00:17:19.180Z,23.96
2023-04-27T00:18:19.170Z,23.94
2023-04-27T00:19:19.171Z,24.24
2023-04-27T00:20:19.186Z,24.36
2023-04-27T00:21:19.212Z,24.21
2023-04-27T00:22:19.200Z,24.19
2023-04-27T00:23:19.214Z,24.11
2023-04-27T00:24:19.255Z,24.14
2023-04-27T00:25:19.311Z,24.14
2023-04-27T00:26:19.329Z,24.19
2023-04-27T00:27:19.403Z,24.06
2023-04-27T00:28:19.377Z,24.22
2023-04-27T00:29:19.447Z,24.07
2023-04-27T00:30:19.442Z,24.13
2023-04-27T00:31:19.477Z,24.19
2023-04-27T00:32:19.568Z,24.13
2023-04-27T00:33:19.430Z,24.09
2023-04-27T00:34:19.453Z,24.21
2023-04-27T00:35:19.428Z,24.23
2023-04-27T00:36:19.494Z,24.41
2023-04-27T00:37:19.469Z,24.19
2023-04-27T00:38:19.511Z,24.03
2023-04-27T00:39:19.498Z,24.22
2023-04-27T00:40:19.509Z,24.17
2023-04-27T00:41:19.545Z,24.35
2023-04-27T00:42:19.514Z,24.28
2023-04-27T00:43:19.508Z,24.33
2023-04-27T00:44:19.505Z,24.14
2023-04-27T00:45:19.503Z,24.13
2023-04-27T00:46:19.569Z,24.30
2023-04-27T00:47:19.546Z,24.27
2023-04-27T00:48:19.512Z,24.14
2023-04-27T00:49:19.527Z,24.19
2023-04-27T00:50:19.496Z,24.31
2023-04-27T00:51:19.545Z,24.19
2023-04-27T00:52:19.549Z,24.14
2023-04-27T00:53:19.503Z,24.08
2023-04-27T00:54:19.535Z,24.28
2023-04-27T00:55:19.531Z,24.25
2023-04-27T00:56:19.522Z,24.19
2023-04-27T00:57:19.505Z,24.22
2023-04-27T00:58:19.547Z,24.45
2023-04-27T00:59:19.547Z,24.22
2023-04-27T01:00:19.563Z,24.22
2023-04-27T01:01:19.564Z,24.16
2023-04-27T01:02:19.638Z,24.27
2023-04-27T01:03:19.636Z,24.20
2023-04-27T01:04:19.682Z,24.18
2023-04-27T01:05:19.586Z,24.16
2023-04-27T01:06:19.604Z,24.27
2023-04-27T01:07:19.615Z,24.24
2023-04-27T01:08:19.588Z,24.25
2023-04-27T01:09:19.626Z,24.28
2023-04-27T01:10:19.568Z,24.37
2023-04-27T01:11:19.589Z,24.61
2023-04-27T01:12:19.580Z,24.48
2023-04-27T01:13:19.587Z,24.35
2023-04-27T01:14:19.586Z,24.24
2023-04-27T01:15:19.601Z,24.18
2023-04-27T01:16:19.643Z,24.14
2023-04-27T01:17:19.618Z,24.34
2023-04-27T01:18:19.573Z,24.19
2023-04-27T01:19:19.580Z,24.25
2023-04-27T01:20:19.550Z,24.21
2023-04-27T01:21:19.788Z,24.25
2023-04-27T01:22:19.571Z,24.25
2023-04-27T01:23:19.576Z,24.18
2023-04-27T01:24:19.625Z,24.17
2023-04-27T01:25:19.660Z,24.21
2023-04-27T01:26:19.670Z,24.22
2023-04-27T01:27:19.694Z,24.18
2023-04-27T01:28:19.675Z,24.36
2023-04-27T01:29:19.695Z,24.17
2023-04-27T01:30:19.691Z,24.32
2023-04-27T01:31:19.727Z,24.16
2023-04-27T01:32:19.708Z,24.31
2023-04-27T01:33:19.714Z,24.19
2023-04-27T01:34:19.717Z,24.31
2023-04-27T01:35:19.741Z,24.24
2023-04-27T01:36:19.751Z,24.28
2023-04-27T01:37:19.762Z,24.25
2023-04-27T01:38:19.756Z,24.25
2023-04-27T01:39:19.720Z,24.24
2023-04-27T01:40:19.777Z,24.21
2023-04-27T01:41:19.702Z,24.37
2023-04-27T01:42:19.735Z,24.18
2023-04-27T01:43:19.736Z,24.28
2023-04-27T01:44:19.748Z,24.32
2023-04-27T01:45:19.777Z,24.19
2023-04-27T01:46:19.817Z,24.24
2023-04-27T01:47:19.729Z,24.38
2023-04-27T01:48:19.722Z,24.17
2023-04-27T01:49:19.814Z,24.32
2023-04-27T01:50:19.738Z,24.69
2023-04-27T01:51:19.721Z,24.29
2023-04-27T01:52:19.700Z,24.35
2023-04-27T01:53:19.704Z,24.31
2023-04-27T01:54:19.725Z,24.39
2023-04-27T01:55:19.694Z,24.21
2023-04-27T01:56:19.699Z,24.19
2023-04-27T01:57:19.701Z,24.32
2023-04-27T01:58:19.689Z,24.45
2023-04-27T01:59:19.666Z,24.31
2023-04-27T02:00:19.712Z,24.32
2023-04-27T02:01:19.737Z,24.36
2023-04-27T02:02:19.698Z,24.31
2023-04-27T02:03:19.850Z,24.19
2023-04-27T02:04:19.827Z,24.29
2023-04-27T02:05:19.680Z,24.21
2023-04-27T02:06:19.695Z,24.21
2023-04-27T02:07:19.696Z,24.36
2023-04-27T02:08:19.703Z,24.46
2023-04-27T02:09:19.685Z,24.35
2023-04-27T02:10:19.665Z,24.29
2023-04-27T02:11:19.722Z,24.42
2023-04-27T02:12:19.748Z,24.17
2023-04-27T02:13:19.737Z,24.36
2023-04-27T02:14:19.750Z,24.18
2023-04-27T02:15:19.748Z,24.25
2023-04-27T02:16:19.782Z,24.21
2023-04-27T02:17:19.769Z,24.31
2023-04-27T02:18:19.775Z,24.46
2023-04-27T02:19:19.740Z,24.32
2023-04-27T02:20:19.776Z,24.25
2023-04-27T02:21:19.741Z,24.27
2023-04-27T02:22:19.715Z,24.31
2023-04-27T02:23:19.742Z,24.39
2023-04-27T02:24:19.699Z,24.31
2023-04-27T02:25:19.730Z,24.55
2023-04-27T02:26:19.793Z,24.45
2023-04-27T02:27:19.741Z,24.29
2023-04-27T02:28:19.703Z,24.39
2023-04-27T02:29:19.765Z,24.24
2023-04-27T02:30:19.697Z,24.36
2023-04-27T02:31:19.800Z,24.32
2023-04-27T02:32:19.762Z,24.38
2023-04-27T02:33:19.780Z,24.49
2023-04-27T02:34:19.714Z,24.40
2023-04-27T02:35:19.756Z,24.38
2023-04-27T02:36:19.732Z,24.24
2023-04-27T02:37:19.739Z,24.25
2023-04-27T02:38:19.750Z,24.38
2023-04-27T02:39:19.723Z,24.39
2023-04-27T02:40:19.719Z,24.27
2023-04-27T02:41:19.776Z,24.51
2023-04-27T02:42:19.736Z,24.33
2023-04-27T02:43:19.763Z,24.46
2023-04-27T02:44:19.737Z,24.33
2023-04-27T02:45:19.752Z,24.44
2023-04-27T02:46:19.788Z,24.42
2023-04-27T02:47:19.707Z,24.44
2023-04-27T02:48:19.767Z,24.38
2023-04-27T02:49:19.767Z,24.32
2023-04-27T02:50:19.779Z,24.29
2023-04-27T02:51:19.730Z,24.46
2023-04-27T02:52:19.742Z,24.29
2023-04-27T02:53:19.746Z,24.29
2023-04-27T02:54:19.724Z,24.32
2023-04-27T02:55:19.758Z,24.24
2023-04-27T02:56:19.763Z,24.25
2023-04-27T02:57:19.863Z,24.22
2023-04-27T02:58:19.777Z,24.31
2023-04-27T02:59:19.782Z,24.45
2023-04-27T03:00:19.760Z,24.30
2023-04-27T03:01:19.858Z,24.36
2023-04-27T03:02:19.835Z,24.33
2023-04-27T03:03:19.906Z,24.28
2023-04-27T03:04:19.943Z,24.39
2023-04-27T03:05:19.760Z,24.46
2023-04-27T03:06:19.750Z,24.25
2023-04-27T03:07:19.725Z,24.23
2023-04-27T03:08:19.766Z,24.45
2023-04-27T03:09:19.748Z,24.32
2023-04-27T03:10:19.763Z,24.35
2023-04-27T03:11:19.739Z,24.26
2023-04-27T03:12:19.746Z,24.30
2023-04-27T03:13:19.771Z,24.36
2023-04-27T03:14:19.786Z,24.46
2023-04-27T03:15:19.777Z,24.33
2023-04-27T03:16:19.885Z,24.29
2023-04-27T03:17:19.805Z,24.29
2023-04-27T03:18:19.780Z,24.35
2023-04-27T03:19:19.768Z,24.30
2023-04-27T03:20:19.776Z,24.35
2023-04-27T03:21:19.782Z,24.25
2023-04-27T03:22:19.755Z,24.28
2023-04-27T03:23:19.808Z,24.38
2023-04-27T03:24:19.813Z,24.43
2023-04-27T03:25:19.759Z,24.53
2023-04-27T03:26:19.743Z,24.42
2023-04-27T03:27:19.847Z,24.38
2023-04-27T03:28:19.781Z,24.43
2023-04-27T03:29:19.767Z,24.55
2023-04-27T03:30:19.762Z,24.40
2023-04-27T03:31:19.776Z,24.43
2023-04-27T03:32:19.737Z,24.32
2023-04-27T03:33:19.767Z,24.42
2023-04-27T03:34:19.762Z,24.32
2023-04-27T03:35:19.782Z,24.34
2023-04-27T03:36:19.785Z,24.39
2023-04-27T03:37:19.785Z,24.42
2023-04-27T03:38:19.781Z,24.38
2023-04-27T03:39:19.794Z,24.49
2023-04-27T03:40:19.799Z,24.33
2023-04-27T03:41:19.806Z,24.39
2023-04-27T03:42:19.768Z,24.36
2023-04-27T03:43:19.811Z,24.29
2023-04-27T03:44:19.827Z,24.47
2023-04-27T03:45:19.860Z,24.49
2023-04-27T03:46:19.910Z,24.44
2023-04-27T03:47:19.920Z,24.57
2023-04-27T03:48:19.817Z,24.50
2023-04-27T03:49:19.871Z,24.43
2023-04-27T03:50:19.843Z,24.47
2023-04-27T03:51:19.823Z,24.39
2023-04-27T03:52:19.844Z,24.38
2023-04-27T03:53:19.815Z,24.46
2023-04-27T03:54:19.845Z,24.50
2023-04-27T03:55:19.871Z,24.47
2023-04-27T03:56:19.839Z,24.49
2023-04-27T03:57:19.873Z,24.40
2023-04-27T03:58:19.847Z,24.41
2023-04-27T03:59:19.852Z,24.62
2023-04-27T04:00:19.888Z,24.54
2023-04-27T04:01:19.874Z,24.34
2023-04-27T04:02:19.954Z,24.57
2023-04-27T04:03:20.128Z,24.34
2023-04-27T04:04:19.953Z,24.16
2023-04-27T04:05:19.962Z,24.16
2023-04-27T04:06:19.887Z,24.13
2023-04-27T04:07:19.890Z,24.09
2023-04-27T04:08:19.948Z,24.15
2023-04-27T04:09:21.402Z,24.11
2023-04-27T04:10:19.921Z,24.08
2023-04-27T04:11:19.903Z,24.09
2023-04-27T04:12:19.912Z,24.12
2023-04-27T04:13:19.879Z,24.11
2023-04-27T04:14:19.884Z,24.09
2023-04-27T04:15:19.886Z,24.10
2023-04-27T04:16:19.909Z,24.11
2023-04-27T04:17:19.848Z,24.10
2023-04-27T04:18:19.855Z,24.15
2023-04-27T04:19:21.423Z,24.13
2023-04-27T04:20:19.828Z,24.13
2023-04-27T04:21:19.789Z,24.16
2023-04-27T04:22:19.810Z,24.15
2023-04-27T04:23:19.808Z,24.17
2023-04-27T04:24:19.791Z,24.20
2023-04-27T04:25:19.788Z,24.17
2023-04-27T04:26:19.799Z,24.18
2023-04-27T04:27:19.810Z,24.17
2023-04-27T04:28:19.766Z,24.16
2023-04-27T04:29:19.784Z,24.19
2023-04-27T04:30:19.753Z,24.23
2023-04-27T04:31:19.825Z,24.27
2023-04-27T04:32:19.853Z,24.20
2023-04-27T04:33:19.927Z,24.19
2023-04-27T04:34:19.860Z,24.21
2023-04-27T04:35:19.885Z,24.27
2023-04-27T04:36:19.868Z,24.26
2023-04-27T04:37:19.902Z,24.28
2023-04-27T04:38:19.937Z,24.20
2023-04-27T04:39:19.937Z,24.30
2023-04-27T04:40:19.957Z,24.21
2023-04-27T04:41:19.962Z,24.30
2023-04-27T04:42:20.025Z,24.31
2023-04-27T04:43:20.002Z,24.28
2023-04-27T04:44:20.025Z,24.27
2023-04-27T04:45:20.036Z,24.34
2023-04-27T04:46:20.162Z,24.28
2023-04-27T04:47:20.045Z,24.33
2023-04-27T04:48:20.096Z,24.30
2023-04-27T04:49:20.128Z,24.30
2023-04-27T04:50:20.128Z,24.30
2023-04-27T04:51:20.128Z,24.40
2023-04-27T04:52:20.111Z,24.35
2023-04-27T04:53:20.142Z,24.35
2023-04-27T04:54:20.115Z,24.34
2023-04-27T04:55:20.128Z,24.34
2023-04-27T04:56:20.163Z,24.37
2023-04-27T04:57:20.115Z,24.40
2023-04-27T04:58:20.151Z,24.39
2023-04-27T04:59:20.175Z,24.37
2023-04-27T05:00:20.201Z,24.41
2023-04-27T05:01:20.226Z,24.37
2023-04-27T05:02:20.272Z,24.47
2023-04-27T05:03:20.349Z,24.37
2023-04-27T05:04:20.528Z,24.47
2023-04-27T05:05:20.249Z,24.39
2023-04-27T05:06:20.243Z,24.47
2023-04-27T05:07:24.145Z,24.41
2023-04-27T05:08:20.255Z,24.43
2023-04-27T05:09:20.230Z,24.47
2023-04-27T05:10:20.259Z,24.45
2023-04-27T05:11:20.196Z,24.54
2023-04-27T05:12:20.220Z,24.51
2023-04-27T05:13:20.229Z,24.47
2023-04-27T05:14:20.203Z,24.43
2023-04-27T05:15:20.188Z,24.40
2023-04-27T05:16:20.233Z,24.48
2023-04-27T05:17:20.254Z,24.46
2023-04-27T05:18:20.256Z,24.44
2023-04-27T05:19:20.156Z,24.41
2023-04-27T05:20:20.784Z,24.47
2023-04-27T05:21:20.140Z,24.38
2023-04-27T05:22:20.132Z,24.60
2023-04-27T05:23:20.148Z,24.58
2023-04-27T05:24:20.147Z,24.66
2023-04-27T05:25:20.122Z,24.51
2023-04-27T05:26:20.093Z,24.50
2023-04-27T05:27:20.111Z,24.58
2023-04-27T05:28:20.117Z,24.54
2023-04-27T05:29:20.077Z,24.61
2023-04-27T05:30:20.060Z,24.75
2023-04-27T05:31:20.095Z,24.60
2023-04-27T05:32:20.049Z,24.68
2023-04-27T05:33:20.069Z,24.46
2023-04-27T05:34:20.032Z,24.57
2023-04-27T05:35:20.071Z,24.46
2023-04-27T05:36:20.068Z,24.66
2023-04-27T05:37:20.030Z,24.98
2023-04-27T05:38:20.004Z,25.19
2023-04-27T05:39:20.024Z,25.18
2023-04-27T05:40:19.991Z,25.19
2023-04-27T05:41:19.996Z,25.97
2023-04-27T05:42:20.016Z,25.77
2023-04-27T05:43:20.038Z,26.08
2023-04-27T05:44:19.987Z,26.24
2023-04-27T05:45:19.977Z,26.27
2023-04-27T05:46:20.367Z,26.25
2023-04-27T05:47:19.973Z,26.36
2023-04-27T05:48:19.962Z,26.41
2023-04-27T05:49:19.967Z,26.50
2023-04-27T05:50:19.935Z,26.53
2023-04-27T05:51:19.913Z,26.57
2023-04-27T05:52:20.387Z,26.58
2023-04-27T05:53:19.912Z,26.58
2023-04-27T05:54:19.944Z,26.63
2023-04-27T05:55:19.920Z,26.67
2023-04-27T05:56:19.901Z,26.70
2023-04-27T05:57:19.910Z,26.75
2023-04-27T05:58:19.911Z,26.90
2023-04-27T05:59:19.996Z,26.88
2023-04-27T06:00:19.933Z,26.95
2023-04-27T06:01:19.948Z,27.16
2023-04-27T06:02:20.060Z,27.13
2023-04-27T06:03:20.185Z,27.26
2023-04-27T06:04:20.081Z,27.37
2023-04-27T06:05:20.044Z,27.28
2023-04-27T06:06:20.025Z,27.32
2023-04-27T06:07:20.138Z,27.39
2023-04-27T06:08:20.190Z,27.38
2023-04-27T06:09:20.288Z,27.44
2023-04-27T06:10:20.219Z,27.47
2023-04-27T06:11:20.298Z,27.47
2023-04-27T06:12:20.344Z,27.85
2023-04-27T06:13:20.439Z,27.82
2023-04-27T06:14:20.493Z,27.71
2023-04-27T06:15:20.547Z,27.80
2023-04-27T06:16:20.710Z,27.84
2023-04-27T06:17:20.662Z,27.76
2023-04-27T06:18:20.731Z,27.77
2023-04-27T06:19:20.770Z,27.76
2023-04-27T06:20:20.853Z,27.77
2023-04-27T06:21:20.920Z,27.79
2023-04-27T06:22:20.957Z,27.71
2023-04-27T06:23:21.375Z,27.83
2023-04-27T06:24:21.050Z,27.81
2023-04-27T06:25:21.113Z,27.82
2023-04-27T06:26:21.154Z,27.82
2023-04-27T06:27:21.232Z,27.85
2023-04-27T06:28:21.308Z,27.91
2023-04-27T06:29:22.233Z,27.98
2023-04-27T06:30:21.244Z,28.11
2023-04-27T06:31:21.283Z,28.07
2023-04-27T06:32:21.227Z,28.04
2023-04-27T06:33:21.240Z,28.03
2023-04-27T06:34:21.206Z,28.03
2023-04-27T06:35:21.229Z,28.01
2023-04-27T06:36:21.174Z,27.96
2023-04-27T06:37:21.352Z,28.04
2023-04-27T06:38:21.227Z,28.14
2023-04-27T06:39:21.169Z,28.19
2023-04-27T06:40:21.401Z,28.21
2023-04-27T06:41:21.281Z,28.35
2023-04-27T06:42:21.267Z,28.41
2023-04-27T06:43:21.332Z,28.25
2023-04-27T06:44:21.344Z,28.28
2023-04-27T06:45:21.899Z,28.23
2023-04-27T06:46:21.455Z,28.20
2023-04-27T06:47:21.464Z,28.13
2023-04-27T06:48:21.511Z,28.10
2023-04-27T06:49:21.547Z,28.00
2023-04-27T06:50:21.659Z,28.16
2023-04-27T06:51:21.595Z,28.23
2023-04-27T06:52:21.625Z,28.19
2023-04-27T06:53:21.668Z,28.18
2023-04-27T06:54:21.682Z,28.16
2023-04-27T06:55:21.734Z,28.16
2023-04-27T06:56:21.728Z,28.22
2023-04-27T06:57:21.795Z,28.16
2023-04-27T06:58:21.772Z,28.22
2023-04-27T06:59:21.786Z,28.26
2023-04-27T07:00:21.837Z,28.26
2023-04-27T07:01:21.887Z,28.18
2023-04-27T07:02:23.123Z,28.23
2023-04-27T07:03:22.031Z,28.15
2023-04-27T07:04:22.080Z,28.14
2023-04-27T07:05:21.938Z,28.15
2023-04-27T07:06:21.919Z,28.24
2023-04-27T07:07:21.994Z,28.19
2023-04-27T07:08:22.031Z,28.46
2023-04-27T07:09:27.460Z,28.43
2023-04-27T07:10:23.044Z,28.40
2023-04-27T07:11:22.011Z,28.44
2023-04-27T07:12:21.999Z,28.50
2023-04-27T07:13:22.387Z,28.57
2023-04-27T07:14:21.997Z,28.55
2023-04-27T07:15:21.993Z,28.56
2023-04-27T07:16:22.065Z,28.55
2023-04-27T07:17:21.998Z,28.43
2023-04-27T07:18:21.978Z,28.42
2023-04-27T07:19:21.948Z,28.53
2023-04-27T07:20:21.956Z,28.61
2023-04-27T07:21:21.927Z,28.59
2023-04-27T07:22:21.952Z,28.62
2023-04-27T07:23:21.976Z,28.69
2023-04-27T07:24:21.958Z,28.69
2023-04-27T07:25:21.937Z,28.77
2023-04-27T07:26:22.416Z,28.78
2023-04-27T07:27:21.889Z,28.75
2023-04-27T07:28:21.948Z,28.82
2023-04-27T07:29:27.140Z,28.84
2023-04-27T07:30:22.958Z,28.81
2023-04-27T07:31:21.945Z,29.00
2023-04-27T07:32:21.988Z,29.12
2023-04-27T07:33:21.954Z,29.00
2023-04-27T07:34:21.952Z,29.00
2023-04-27T07:35:21.983Z,29.04
2023-04-27T07:36:22.415Z,28.91
2023-04-27T07:37:21.905Z,28.91
2023-04-27T07:38:21.911Z,28.91
2023-04-27T07:39:21.956Z,28.61
2023-04-27T07:40:21.887Z,28.52
2023-04-27T07:41:21.902Z,28.52
2023-04-27T07:42:21.870Z,28.47
2023-04-27T07:43:21.855Z,28.44
2023-04-27T07:44:21.897Z,28.48
2023-04-27T07:45:21.844Z,28.45
2023-04-27T07:46:21.978Z,28.50
2023-04-27T07:47:21.837Z,28.51
2023-04-27T07:48:21.953Z,28.50
2023-04-27T07:49:21.817Z,28.49
2023-04-27T07:50:21.819Z,28.56
2023-04-27T07:51:21.824Z,28.57
2023-04-27T07:52:21.841Z,28.55
2023-04-27T07:53:21.874Z,28.55
2023-04-27T07:54:21.853Z,28.55
2023-04-27T07:55:21.846Z,28.60
2023-04-27T07:56:21.863Z,28.66
2023-04-27T07:57:21.850Z,28.78
2023-04-27T07:58:21.922Z,28.83
2023-04-27T07:59:21.881Z,28.83
2023-04-27T08:00:21.961Z,28.83
2023-04-27T08:01:21.937Z,28.85
2023-04-27T08:02:22.079Z,28.85
2023-04-27T08:03:22.104Z,28.88
2023-04-27T08:04:22.225Z,28.92
2023-04-27T08:05:22.168Z,28.94
2023-04-27T08:06:22.263Z,28.98
2023-04-27T08:07:22.478Z,28.99
2023-04-27T08:08:21.984Z,29.05
2023-04-27T08:09:21.915Z,29.08
2023-04-27T08:10:21.878Z,29.10
2023-04-27T08:11:21.932Z,29.25
2023-04-27T08:12:21.895Z,29.18
2023-04-27T08:13:23.223Z,29.12
2023-04-27T08:14:21.873Z,29.20
2023-04-27T08:15:21.882Z,29.17
2023-04-27T08:16:21.928Z,29.12
2023-04-27T08:17:21.872Z,29.17
2023-04-27T08:18:21.859Z,29.23
2023-04-27T08:19:21.877Z,29.23
2023-04-27T08:20:21.906Z,29.26
2023-04-27T08:21:21.867Z,29.34
2023-04-27T08:22:21.900Z,29.36
2023-04-27T08:23:21.896Z,29.43
2023-04-27T08:24:21.913Z,29.49
2023-04-27T08:25:21.952Z,29.42
2023-04-27T08:26:23.452Z,29.43
2023-04-27T08:27:22.037Z,29.60
2023-04-27T08:28:21.970Z,29.40
2023-04-27T08:29:28.037Z,29.40
2023-04-27T08:30:23.018Z,29.40
2023-04-27T08:31:21.946Z,29.28
2023-04-27T08:32:21.919Z,29.19
2023-04-27T08:33:21.944Z,29.05
2023-04-27T08:34:21.914Z,28.95
2023-04-27T08:35:21.908Z,28.82
2023-04-27T08:36:21.914Z,28.74
2023-04-27T08:37:21.893Z,28.63
2023-04-27T08:38:23.727Z,28.53
2023-04-27T08:39:21.951Z,28.44
2023-04-27T08:40:21.911Z,28.39
2023-04-27T08:41:22.508Z,28.34
2023-04-27T08:42:21.848Z,28.00
2023-04-27T08:43:21.871Z,28.16
2023-04-27T08:44:21.836Z,28.01
2023-04-27T08:45:21.863Z,28.36
2023-04-27T08:46:21.941Z,28.24
2023-04-27T08:47:31.412Z,28.24
2023-04-27T08:48:22.942Z,28.58
2023-04-27T08:49:22.131Z,28.72
2023-04-27T08:50:21.817Z,28.82
2023-04-27T08:51:21.817Z,29.07
2023-04-27T08:52:21.789Z,29.04
2023-04-27T08:53:21.823Z,29.21
2023-04-27T08:54:21.776Z,29.31
2023-04-27T08:55:21.809Z,29.47
2023-04-27T08:56:21.791Z,29.40
2023-04-27T08:57:21.788Z,29.48
2023-04-27T08:58:21.802Z,29.56
2023-04-27T08:59:21.744Z,29.70
2023-04-27T09:00:21.950Z,29.72
2023-04-27T09:01:21.808Z,29.86
2023-04-27T09:02:21.829Z,29.85
2023-04-27T09:03:21.917Z,29.97
2023-04-27T09:04:22.000Z,30.11
2023-04-27T09:05:21.830Z,30.09
2023-04-27T09:06:21.749Z,30.10
2023-04-27T09:07:21.698Z,30.24
2023-04-27T09:08:21.717Z,30.27
2023-04-27T09:09:21.791Z,30.23
2023-04-27T09:10:22.452Z,30.28
2023-04-27T09:11:21.905Z,30.24
2023-04-27T09:12:21.995Z,30.27
2023-04-27T09:13:22.455Z,30.28
2023-04-27T09:14:22.115Z,30.27
2023-04-27T09:15:22.163Z,30.23
2023-04-27T09:16:22.292Z,30.23
2023-04-27T09:17:22.334Z,30.19
2023-04-27T09:18:22.348Z,30.20
2023-04-27T09:19:22.481Z,30.24
2023-04-27T09:20:22.462Z,30.31
2023-04-27T09:21:22.529Z,30.35
2023-04-27T09:22:22.580Z,30.24
2023-04-27T09:23:22.601Z,30.31
2023-04-27T09:24:22.620Z,30.28
2023-04-27T09:25:22.702Z,30.22
2023-04-27T09:26:22.767Z,30.16
2023-04-27T09:27:22.821Z,30.19
2023-04-27T09:28:22.826Z,30.12
2023-04-27T09:29:22.893Z,30.13
2023-04-27T09:30:22.927Z,30.29
2023-04-27T09:31:23.030Z,30.46
2023-04-27T09:32:23.081Z,30.41
2023-04-27T09:33:23.186Z,30.46
2023-04-27T09:34:23.171Z,30.40
2023-04-27T09:35:23.449Z,29.79
2023-04-27T09:36:23.251Z,29.92
2023-04-27T09:37:23.287Z,29.75
2023-04-27T09:38:23.375Z,29.55
2023-04-27T09:39:23.390Z,29.37
2023-04-27T09:40:23.475Z,29.17
2023-04-27T09:41:23.565Z,29.01
2023-04-27T09:42:23.583Z,28.82
2023-04-27T09:43:23.665Z,28.72
2023-04-27T09:44:23.729Z,28.62
2023-04-27T09:45:23.763Z,28.55
2023-04-27T09:46:23.910Z,28.36
2023-04-27T09:47:23.923Z,28.31
2023-04-27T09:48:23.922Z,28.18
2023-04-27T09:49:24.006Z,28.02
2023-04-27T09:50:24.021Z,27.97
2023-04-27T09:51:24.087Z,27.84
2023-04-27T09:52:24.177Z,27.81
2023-04-27T09:53:24.305Z,27.64
2023-04-27T09:54:24.224Z,27.61
2023-04-27T09:55:24.313Z,27.42
2023-04-27T09:56:24.474Z,27.39
2023-04-27T09:57:24.455Z,27.32
2023-04-27T09:58:24.450Z,27.21
2023-04-27T09:59:24.990Z,27.22
2023-04-27T10:00:24.576Z,27.16
2023-04-27T10:01:24.723Z,27.09
2023-04-27T10:02:25.828Z,27.04
2023-04-27T10:03:24.885Z,26.98
2023-04-27T10:04:25.197Z,26.94
2023-04-27T10:05:24.984Z,26.88
2023-04-27T10:06:24.951Z,26.73
2023-04-27T10:07:24.998Z,26.73
2023-04-27T10:08:25.085Z,26.69
2023-04-27T10:09:25.149Z,26.60
2023-04-27T10:10:25.202Z,26.59
2023-04-27T10:11:25.251Z,26.45
2023-04-27T10:12:25.295Z,26.47
2023-04-27T10:13:25.380Z,26.35
2023-04-27T10:14:25.374Z,26.43
2023-04-27T10:15:25.459Z,26.47
2023-04-27T10:16:25.620Z,26.50
2023-04-27T10:17:25.564Z,26.49
2023-04-27T10:18:25.569Z,26.54
2023-04-27T10:19:25.656Z,26.53
2023-04-27T10:20:25.687Z,26.55
2023-04-27T10:21:25.767Z,26.60
2023-04-27T10:22:25.785Z,26.63
2023-04-27T10:23:25.857Z,26.64
2023-04-27T10:24:25.894Z,26.67
2023-04-27T10:25:25.929Z,26.66
2023-04-27T10:26:26.008Z,26.77
2023-04-27T10:27:26.014Z,26.70
2023-04-27T10:28:26.472Z,26.80
2023-04-27T10:29:26.103Z,26.79
2023-04-27T10:30:26.121Z,26.76
2023-04-27T10:31:26.246Z,26.79
2023-04-27T10:32:26.325Z,26.77
2023-04-27T10:33:26.252Z,26.80
2023-04-27T10:34:26.321Z,26.79
2023-04-27T10:35:26.301Z,26.79
2023-04-27T10:36:26.449Z,26.72
2023-04-27T10:37:26.409Z,26.78
2023-04-27T10:38:26.432Z,26.72
2023-04-27T10:39:39.794Z,26.75
2023-04-27T10:40:27.470Z,26.69
2023-04-27T10:41:26.460Z,26.67
2023-04-27T10:42:26.444Z,26.67
2023-04-27T10:43:26.437Z,26.72
2023-04-27T10:44:26.449Z,26.75
2023-04-27T10:45:28.473Z,26.71
2023-04-27T10:46:26.414Z,26.70
2023-04-27T10:47:26.506Z,26.75
2023-04-27T10:48:26.406Z,26.71
2023-04-27T10:49:26.383Z,26.73
2023-04-27T10:50:26.377Z,26.74
2023-04-27T10:51:26.345Z,26.75
2023-04-27T10:52:26.399Z,26.81
2023-04-27T10:53:26.345Z,26.68
2023-04-27T10:54:26.339Z,26.74
2023-04-27T10:55:26.341Z,26.74
2023-04-27T10:56:26.327Z,26.74
2023-04-27T10:57:26.337Z,26.68
2023-04-27T10:58:34.610Z,26.73
2023-04-27T10:59:27.351Z,26.73
2023-04-27T11:00:26.283Z,26.73
2023-04-27T11:01:26.367Z,26.72
2023-04-27T11:02:26.388Z,26.74
2023-04-27T11:03:26.310Z,26.74
2023-04-27T11:04:26.317Z,26.72
2023-04-27T11:05:26.231Z,26.73
2023-04-27T11:06:26.253Z,26.72
2023-04-27T11:07:26.225Z,26.74
2023-04-27T11:08:26.266Z,26.74
2023-04-27T11:09:26.287Z,26.73
2023-04-27T11:10:26.288Z,26.74
2023-04-27T11:11:26.226Z,26.76
2023-04-27T11:12:26.309Z,26.72
2023-04-27T11:13:26.211Z,26.69
2023-04-27T11:14:26.236Z,26.72
2023-04-27T11:15:26.194Z,26.75
2023-04-27T11:16:26.232Z,26.68
2023-04-27T11:17:26.217Z,26.79
2023-04-27T11:18:26.171Z,26.73
2023-04-27T11:19:26.171Z,26.72
2023-04-27T11:20:26.170Z,26.17
2023-04-27T11:21:26.520Z,26.27
2023-04-27T11:22:26.127Z,25.43
2023-04-27T11:23:26.171Z,24.38
2023-04-27T11:24:26.128Z,24.34
2023-04-27T11:25:26.110Z,24.44
2023-04-27T11:26:26.506Z,24.69
2023-04-27T11:27:26.084Z,24.89
2023-04-27T11:28:26.117Z,25.16
2023-04-27T11:29:26.102Z,25.20
2023-04-27T11:30:26.533Z,25.22
2023-04-27T11:31:26.117Z,25.32
2023-04-27T11:32:26.082Z,25.32
2023-04-27T11:33:26.080Z,25.29
2023-04-27T11:34:26.064Z,25.33
2023-04-27T11:35:26.128Z,25.33
2023-04-27T11:36:26.165Z,25.31
2023-04-27T11:37:26.234Z,25.36
2023-04-27T11:38:26.388Z,25.31
2023-04-27T11:39:26.386Z,25.34
2023-04-27T11:40:26.423Z,25.30
2023-04-27T11:41:26.441Z,25.32
2023-04-27T11:42:26.487Z,25.36
2023-04-27T11:43:26.588Z,25.30
2023-04-27T11:44:26.611Z,25.30
2023-04-27T11:45:26.834Z,25.30
2023-04-27T11:46:26.752Z,25.34
2023-04-27T11:47:26.817Z,25.33
2023-04-27T11:48:26.864Z,25.29
2023-04-27T11:49:26.917Z,25.26
2023-04-27T11:50:26.984Z,25.35
2023-04-27T11:51:27.009Z,25.29
2023-04-27T11:52:27.102Z,25.32
2023-04-27T11:53:27.115Z,25.36
2023-04-27T11:54:27.132Z,25.34
2023-04-27T11:55:27.162Z,25.38
2023-04-27T11:56:27.226Z,25.38
2023-04-27T11:57:27.230Z,25.41
2023-04-27T11:58:27.551Z,25.51
2023-04-27T11:59:27.318Z,25.49
2023-04-27T12:00:27.381Z,25.53
2023-04-27T12:01:36.931Z,25.53
2023-04-27T12:02:28.721Z,25.53
2023-04-27T12:03:27.449Z,25.59
2023-04-27T12:04:27.525Z,25.51
2023-04-27T12:05:27.751Z,25.56
2023-04-27T12:06:32.586Z,25.53
2023-04-27T12:07:28.355Z,25.54
2023-04-27T12:08:27.334Z,25.52
2023-04-27T12:09:27.356Z,25.54
2023-04-27T12:10:27.339Z,25.47
2023-04-27T12:11:27.346Z,25.56
2023-04-27T12:12:27.364Z,25.59
2023-04-27T12:13:27.338Z,25.56
2023-04-27T12:14:27.287Z,25.55
2023-04-27T12:15:27.299Z,25.53
2023-04-27T12:16:27.342Z,25.58
2023-04-27T12:17:27.349Z,25.50
2023-04-27T12:18:27.296Z,25.52
2023-04-27T12:19:27.334Z,25.55
2023-04-27T12:20:27.379Z,25.56
2023-04-27T12:21:27.471Z,25.54
2023-04-27T12:22:27.514Z,25.46
2023-04-27T12:23:27.534Z,25.39
2023-04-27T12:24:27.555Z,25.36
2023-04-27T12:25:27.620Z,25.29
2023-04-27T12:26:27.669Z,25.22
2023-04-27T12:27:27.715Z,25.16
2023-04-27T12:28:27.784Z,25.15
2023-04-27T12:29:27.830Z,25.16
2023-04-27T12:30:27.888Z,25.05
2023-04-27T12:31:28.036Z,25.06
2023-04-27T12:32:27.960Z,25.04
2023-04-27T12:33:28.025Z,25.01
2023-04-27T12:34:28.102Z,24.98
2023-04-27T12:35:28.124Z,24.90
2023-04-27T12:36:28.154Z,24.94
2023-04-27T12:37:28.191Z,24.88
2023-04-27T12:38:28.229Z,24.84
2023-04-27T12:39:28.311Z,24.80
2023-04-27T12:40:28.330Z,24.77
2023-04-27T12:41:28.370Z,24.72
2023-04-27T12:42:28.402Z,24.70
2023-04-27T12:43:28.456Z,24.67
2023-04-27T12:44:28.488Z,24.68
2023-04-27T12:45:28.588Z,24.71
2023-04-27T12:46:28.673Z,24.64
2023-04-27T12:48:29.649Z,24.54
2023-04-27T12:49:28.720Z,24.57
2023-04-27T12:50:28.651Z,24.50
2023-04-27T12:51:28.675Z,24.50
2023-04-27T12:52:28.609Z,24.51
2023-04-27T12:53:28.577Z,24.51